sensor_id;sensor_type;location;lat;lon;timestamp;temperature;humidity
28763;DHT22;15918;51.270;6.522;2022-09-25T00:01:25;17.70;67.90
28763;DHT22;15918;51.270;6.522;2022-09-25T00:03:50;17.80;68.00
28763;DHT22;15918;51.270;6.522;2022-09-25T00:06:20;17.80;68.00
28763;DHT22;15918;51.270;6.522;2022-09-25T00:08:46;17.80;68.00
28763;DHT22;15918;51.270;6.522;2022-09-25T00:11:18;17.70;67.90
28763;DHT22;15918;51.270;6.522;2022-09-25T00:13:44;17.80;67.90
28763;DHT22;15918;51.270;6.522;2022-09-25T00:16:13;17.70;67.90
28763;DHT22;15918;51.270;6.522;2022-09-25T00:18:39;17.70;67.90
28763;DHT22;15918;51.270;6.522;2022-09-25T00:21:24;17.70;67.90
28763;DHT22;15918;51.270;6.522;2022-09-25T00:23:53;17.70;67.90
28763;DHT22;15918;51.270;6.522;2022-09-25T00:26:19;17.70;67.80
28763;DHT22;15918;51.270;6.522;2022-09-25T00:28:45;17.70;67.80
28763;DHT22;15918;51.270;6.522;2022-09-25T00:31:11;17.70;67.90
28763;DHT22;15918;51.270;6.522;2022-09-25T00:33:42;17.70;67.80
28763;DHT22;15918;51.270;6.522;2022-09-25T00:36:09;17.70;67.80
28763;DHT22;15918;51.270;6.522;2022-09-25T00:38:36;17.60;67.60
28763;DHT22;15918;51.270;6.522;2022-09-25T00:41:02;17.70;67.70
28763;DHT22;15918;51.270;6.522;2022-09-25T00:43:35;17.70;67.70
28763;DHT22;15918;51.270;6.522;2022-09-25T00:46:49;17.70;67.60
28763;DHT22;15918;51.270;6.522;2022-09-25T00:49:05;17.60;67.50
28763;DHT22;15918;51.270;6.522;2022-09-25T00:52:04;17.60;67.60
28763;DHT22;15918;51.270;6.522;2022-09-25T00:54:35;17.60;67.40
28763;DHT22;15918;51.270;6.522;2022-09-25T00:57:06;17.60;67.60
28763;DHT22;15918;51.270;6.522;2022-09-25T00:59:37;17.60;67.70
28763;DHT22;15918;51.270;6.522;2022-09-25T01:02:05;17.60;67.60
28763;DHT22;15918;51.270;6.522;2022-09-25T01:04:34;17.60;67.60
28763;DHT22;15918;51.270;6.522;2022-09-25T01:07:01;17.60;67.60
28763;DHT22;15918;51.270;6.522;2022-09-25T01:09:27;17.60;67.60
28763;DHT22;15918;51.270;6.522;2022-09-25T01:11:53;17.70;67.60
28763;DHT22;15918;51.270;6.522;2022-09-25T01:14:19;17.60;67.50
28763;DHT22;15918;51.270;6.522;2022-09-25T01:16:58;17.60;67.50
28763;DHT22;15918;51.270;6.522;2022-09-25T01:19:58;17.60;67.40
28763;DHT22;15918;51.270;6.522;2022-09-25T01:29:19;17.60;67.60
28763;DHT22;15918;51.270;6.522;2022-09-25T01:33:59;17.60;67.60
28763;DHT22;15918;51.270;6.522;2022-09-25T01:36:28;17.60;67.40
28763;DHT22;15918;51.270;6.522;2022-09-25T01:39:22;17.60;67.40
28763;DHT22;15918;51.270;6.522;2022-09-25T01:41:56;17.60;68.10
28763;DHT22;15918;51.270;6.522;2022-09-25T01:44:25;17.60;67.60
28763;DHT22;15918;51.270;6.522;2022-09-25T01:46:54;17.60;67.60
28763;DHT22;15918;51.270;6.522;2022-09-25T01:49:31;17.50;67.50
28763;DHT22;15918;51.270;6.522;2022-09-25T01:52:00;17.60;67.50
28763;DHT22;15918;51.270;6.522;2022-09-25T01:54:33;17.60;67.50
28763;DHT22;15918;51.270;6.522;2022-09-25T01:57:13;17.60;67.40
28763;DHT22;15918;51.270;6.522;2022-09-25T01:59:52;17.60;67.40
28763;DHT22;15918;51.270;6.522;2022-09-25T02:02:22;17.50;67.40
28763;DHT22;15918;51.270;6.522;2022-09-25T02:04:56;17.50;67.50
28763;DHT22;15918;51.270;6.522;2022-09-25T02:07:31;17.50;67.40
28763;DHT22;15918;51.270;6.522;2022-09-25T02:10:17;17.50;67.40
28763;DHT22;15918;51.270;6.522;2022-09-25T02:12:47;17.50;67.50
28763;DHT22;15918;51.270;6.522;2022-09-25T02:15:28;17.50;67.50
28763;DHT22;15918;51.270;6.522;2022-09-25T02:17:59;17.50;67.60
28763;DHT22;15918;51.270;6.522;2022-09-25T02:20:48;17.50;67.70
28763;DHT22;15918;51.270;6.522;2022-09-25T02:23:18;17.50;67.80
28763;DHT22;15918;51.270;6.522;2022-09-25T02:26:05;17.60;67.80
28763;DHT22;15918;51.270;6.522;2022-09-25T02:28:31;17.50;68.50
28763;DHT22;15918;51.270;6.522;2022-09-25T02:30:58;17.50;67.70
28763;DHT22;15918;51.270;6.522;2022-09-25T02:33:25;17.50;67.70
28763;DHT22;15918;51.270;6.522;2022-09-25T02:35:51;17.50;67.70
28763;DHT22;15918;51.270;6.522;2022-09-25T02:38:17;17.50;67.70
28763;DHT22;15918;51.270;6.522;2022-09-25T02:41:26;17.50;67.60
28763;DHT22;15918;51.270;6.522;2022-09-25T02:43:49;17.50;67.70
28763;DHT22;15918;51.270;6.522;2022-09-25T02:52:03;17.50;67.70
28763;DHT22;15918;51.270;6.522;2022-09-25T02:54:45;17.50;67.40
28763;DHT22;15918;51.270;6.522;2022-09-25T02:57:37;17.40;67.60
28763;DHT22;15918;51.270;6.522;2022-09-25T03:00:06;17.40;67.40
28763;DHT22;15918;51.270;6.522;2022-09-25T03:02:34;17.40;67.60
28763;DHT22;15918;51.270;6.522;2022-09-25T03:05:01;17.40;67.50
28763;DHT22;15918;51.270;6.522;2022-09-25T03:07:28;17.40;67.40
28763;DHT22;15918;51.270;6.522;2022-09-25T03:09:54;17.40;67.50
28763;DHT22;15918;51.270;6.522;2022-09-25T03:12:22;17.40;67.50
28763;DHT22;15918;51.270;6.522;2022-09-25T03:14:48;17.40;67.50
28763;DHT22;15918;51.270;6.522;2022-09-25T03:17:14;17.40;67.50
28763;DHT22;15918;51.270;6.522;2022-09-25T03:19:41;17.40;67.50
28763;DHT22;15918;51.270;6.522;2022-09-25T03:22:07;17.40;67.50
28763;DHT22;15918;51.270;6.522;2022-09-25T03:24:32;17.40;67.40
28763;DHT22;15918;51.270;6.522;2022-09-25T03:26:58;17.50;67.50
28763;DHT22;15918;51.270;6.522;2022-09-25T03:29:24;17.40;67.40
28763;DHT22;15918;51.270;6.522;2022-09-25T03:31:49;17.40;67.40
28763;DHT22;15918;51.270;6.522;2022-09-25T03:34:17;17.40;67.40
28763;DHT22;15918;51.270;6.522;2022-09-25T03:36:43;17.40;67.40
28763;DHT22;15918;51.270;6.522;2022-09-25T03:39:12;17.40;67.30
28763;DHT22;15918;51.270;6.522;2022-09-25T03:41:39;17.40;67.30
28763;DHT22;15918;51.270;6.522;2022-09-25T03:44:05;17.40;67.30
28763;DHT22;15918;51.270;6.522;2022-09-25T03:46:32;17.40;67.20
28763;DHT22;15918;51.270;6.522;2022-09-25T03:48:58;17.40;67.20
28763;DHT22;15918;51.270;6.522;2022-09-25T03:51:25;17.40;67.10
28763;DHT22;15918;51.270;6.522;2022-09-25T03:53:51;17.40;67.10
28763;DHT22;15918;51.270;6.522;2022-09-25T03:56:20;17.40;67.10
28763;DHT22;15918;51.270;6.522;2022-09-25T03:58:46;17.40;67.00
28763;DHT22;15918;51.270;6.522;2022-09-25T04:01:13;17.40;67.00
28763;DHT22;15918;51.270;6.522;2022-09-25T04:03:40;17.40;66.90
28763;DHT22;15918;51.270;6.522;2022-09-25T04:06:12;17.40;66.90
28763;DHT22;15918;51.270;6.522;2022-09-25T04:08:38;17.40;66.90
28763;DHT22;15918;51.270;6.522;2022-09-25T04:11:04;17.30;66.70
28763;DHT22;15918;51.270;6.522;2022-09-25T04:13:33;17.30;66.80
28763;DHT22;15918;51.270;6.522;2022-09-25T04:16:01;17.30;66.70
28763;DHT22;15918;51.270;6.522;2022-09-25T04:18:28;17.30;66.70
28763;DHT22;15918;51.270;6.522;2022-09-25T04:20:59;17.30;66.70
28763;DHT22;15918;51.270;6.522;2022-09-25T04:23:25;17.30;66.60
28763;DHT22;15918;51.270;6.522;2022-09-25T04:25:52;17.30;66.60
28763;DHT22;15918;51.270;6.522;2022-09-25T04:28:18;17.30;66.60
28763;DHT22;15918;51.270;6.522;2022-09-25T04:30:44;17.40;66.60
28763;DHT22;15918;51.270;6.522;2022-09-25T04:33:10;17.40;66.60
28763;DHT22;15918;51.270;6.522;2022-09-25T04:35:54;17.30;66.50
28763;DHT22;15918;51.270;6.522;2022-09-25T04:38:20;17.30;66.40
28763;DHT22;15918;51.270;6.522;2022-09-25T04:40:46;17.30;66.40
28763;DHT22;15918;51.270;6.522;2022-09-25T04:43:11;17.30;66.40
28763;DHT22;15918;51.270;6.522;2022-09-25T04:45:37;17.30;66.40
28763;DHT22;15918;51.270;6.522;2022-09-25T04:48:04;17.30;66.30
28763;DHT22;15918;51.270;6.522;2022-09-25T04:50:31;17.30;66.30
28763;DHT22;15918;51.270;6.522;2022-09-25T04:52:57;17.30;66.30
28763;DHT22;15918;51.270;6.522;2022-09-25T04:55:23;17.20;66.20
28763;DHT22;15918;51.270;6.522;2022-09-25T04:57:53;17.30;66.20
28763;DHT22;15918;51.270;6.522;2022-09-25T05:00:20;17.30;66.10
28763;DHT22;15918;51.270;6.522;2022-09-25T05:02:46;17.30;66.20
28763;DHT22;15918;51.270;6.522;2022-09-25T05:05:12;17.20;66.00
28763;DHT22;15918;51.270;6.522;2022-09-25T05:07:39;17.20;66.00
28763;DHT22;15918;51.270;6.522;2022-09-25T05:10:06;17.20;66.10
28763;DHT22;15918;51.270;6.522;2022-09-25T05:12:33;17.20;66.10
28763;DHT22;15918;51.270;6.522;2022-09-25T05:14:59;17.20;66.30
28763;DHT22;15918;51.270;6.522;2022-09-25T05:17:24;17.20;66.00
28763;DHT22;15918;51.270;6.522;2022-09-25T05:19:50;17.20;66.10
28763;DHT22;15918;51.270;6.522;2022-09-25T05:22:15;17.20;66.10
28763;DHT22;15918;51.270;6.522;2022-09-25T05:24:41;17.20;66.00
28763;DHT22;15918;51.270;6.522;2022-09-25T05:27:07;17.30;66.10
28763;DHT22;15918;51.270;6.522;2022-09-25T05:29:33;17.20;66.10
28763;DHT22;15918;51.270;6.522;2022-09-25T05:31:59;17.20;66.00
28763;DHT22;15918;51.270;6.522;2022-09-25T05:34:25;17.20;66.00
28763;DHT22;15918;51.270;6.522;2022-09-25T05:36:51;17.20;66.00
28763;DHT22;15918;51.270;6.522;2022-09-25T05:39:16;17.20;66.00
28763;DHT22;15918;51.270;6.522;2022-09-25T05:41:42;17.20;65.90
28763;DHT22;15918;51.270;6.522;2022-09-25T05:44:07;17.20;65.90
28763;DHT22;15918;51.270;6.522;2022-09-25T05:46:37;17.10;65.90
28763;DHT22;15918;51.270;6.522;2022-09-25T05:49:04;17.10;65.80
28763;DHT22;15918;51.270;6.522;2022-09-25T05:51:30;17.10;65.90
28763;DHT22;15918;51.270;6.522;2022-09-25T05:53:56;17.20;65.90
28763;DHT22;15918;51.270;6.522;2022-09-25T05:56:22;17.10;65.80
28763;DHT22;15918;51.270;6.522;2022-09-25T05:58:49;17.10;65.80
28763;DHT22;15918;51.270;6.522;2022-09-25T06:01:15;17.10;65.70
28763;DHT22;15918;51.270;6.522;2022-09-25T06:03:41;17.10;65.70
28763;DHT22;15918;51.270;6.522;2022-09-25T06:06:06;17.10;65.60
28763;DHT22;15918;51.270;6.522;2022-09-25T06:08:32;17.10;65.70
28763;DHT22;15918;51.270;6.522;2022-09-25T06:11:00;17.10;65.70
28763;DHT22;15918;51.270;6.522;2022-09-25T06:13:27;17.10;65.60
28763;DHT22;15918;51.270;6.522;2022-09-25T06:15:53;17.10;65.60
28763;DHT22;15918;51.270;6.522;2022-09-25T06:18:20;17.10;65.60
28763;DHT22;15918;51.270;6.522;2022-09-25T06:20:47;17.10;65.60
28763;DHT22;15918;51.270;6.522;2022-09-25T06:23:13;17.10;65.60
28763;DHT22;15918;51.270;6.522;2022-09-25T06:25:39;17.00;65.40
28763;DHT22;15918;51.270;6.522;2022-09-25T06:28:06;17.10;65.40
28763;DHT22;15918;51.270;6.522;2022-09-25T06:30:34;17.10;65.40
28763;DHT22;15918;51.270;6.522;2022-09-25T06:33:02;17.00;65.40
28763;DHT22;15918;51.270;6.522;2022-09-25T06:35:28;17.10;65.40
28763;DHT22;15918;51.270;6.522;2022-09-25T06:37:58;17.00;65.50
28763;DHT22;15918;51.270;6.522;2022-09-25T06:40:26;17.00;65.40
28763;DHT22;15918;51.270;6.522;2022-09-25T06:43:02;17.00;65.40
28763;DHT22;15918;51.270;6.522;2022-09-25T06:45:30;17.00;65.40
28763;DHT22;15918;51.270;6.522;2022-09-25T06:48:11;17.00;65.50
28763;DHT22;15918;51.270;6.522;2022-09-25T06:50:56;17.00;65.40
28763;DHT22;15918;51.270;6.522;2022-09-25T06:53:24;17.00;65.50
28763;DHT22;15918;51.270;6.522;2022-09-25T06:55:50;17.00;65.60
28763;DHT22;15918;51.270;6.522;2022-09-25T06:58:19;17.00;65.60
28763;DHT22;15918;51.270;6.522;2022-09-25T07:00:49;17.00;65.50
28763;DHT22;15918;51.270;6.522;2022-09-25T07:03:15;17.00;65.50
28763;DHT22;15918;51.270;6.522;2022-09-25T07:06:01;17.00;65.70
28763;DHT22;15918;51.270;6.522;2022-09-25T07:08:27;17.00;65.60
28763;DHT22;15918;51.270;6.522;2022-09-25T07:10:54;17.00;65.60
28763;DHT22;15918;51.270;6.522;2022-09-25T07:13:22;17.00;65.60
28763;DHT22;15918;51.270;6.522;2022-09-25T07:18:22;17.00;65.60
28763;DHT22;15918;51.270;6.522;2022-09-25T07:20:49;17.00;65.60
28763;DHT22;15918;51.270;6.522;2022-09-25T07:23:17;17.10;65.70
28763;DHT22;15918;51.270;6.522;2022-09-25T07:25:43;17.10;65.60
28763;DHT22;15918;51.270;6.522;2022-09-25T07:28:10;17.10;65.40
28763;DHT22;15918;51.270;6.522;2022-09-25T07:30:38;17.10;65.40
28763;DHT22;15918;51.270;6.522;2022-09-25T07:33:04;17.10;65.30
28763;DHT22;15918;51.270;6.522;2022-09-25T07:35:30;17.10;65.30
28763;DHT22;15918;51.270;6.522;2022-09-25T07:37:56;17.10;65.30
28763;DHT22;15918;51.270;6.522;2022-09-25T07:40:23;17.20;65.40
28763;DHT22;15918;51.270;6.522;2022-09-25T07:42:50;17.10;65.30
28763;DHT22;15918;51.270;6.522;2022-09-25T07:45:16;17.10;65.20
28763;DHT22;15918;51.270;6.522;2022-09-25T07:47:41;17.20;65.20
28763;DHT22;15918;51.270;6.522;2022-09-25T07:50:07;17.10;65.00
28763;DHT22;15918;51.270;6.522;2022-09-25T07:52:33;17.10;65.10
28763;DHT22;15918;51.270;6.522;2022-09-25T07:54:59;17.20;65.00
28763;DHT22;15918;51.270;6.522;2022-09-25T07:57:24;17.20;65.00
28763;DHT22;15918;51.270;6.522;2022-09-25T07:59:50;17.20;65.00
28763;DHT22;15918;51.270;6.522;2022-09-25T08:02:15;17.20;64.90
28763;DHT22;15918;51.270;6.522;2022-09-25T08:04:41;17.20;64.90
28763;DHT22;15918;51.270;6.522;2022-09-25T08:07:06;17.20;64.90
28763;DHT22;15918;51.270;6.522;2022-09-25T08:09:32;17.20;64.90
28763;DHT22;15918;51.270;6.522;2022-09-25T08:11:58;17.20;64.90
28763;DHT22;15918;51.270;6.522;2022-09-25T08:14:23;17.20;64.90
28763;DHT22;15918;51.270;6.522;2022-09-25T08:16:50;17.20;64.80
28763;DHT22;15918;51.270;6.522;2022-09-25T08:19:20;17.30;64.90
28763;DHT22;15918;51.270;6.522;2022-09-25T08:21:48;17.30;64.70
28763;DHT22;15918;51.270;6.522;2022-09-25T08:24:13;17.30;64.70
28763;DHT22;15918;51.270;6.522;2022-09-25T08:26:39;17.30;64.60
28763;DHT22;15918;51.270;6.522;2022-09-25T08:29:05;17.30;64.60
28763;DHT22;15918;51.270;6.522;2022-09-25T08:31:32;17.30;64.60
28763;DHT22;15918;51.270;6.522;2022-09-25T08:33:59;17.30;64.60
28763;DHT22;15918;51.270;6.522;2022-09-25T08:36:24;17.30;64.60
28763;DHT22;15918;51.270;6.522;2022-09-25T08:38:51;17.40;64.70
28763;DHT22;15918;51.270;6.522;2022-09-25T08:41:24;17.40;64.70
28763;DHT22;15918;51.270;6.522;2022-09-25T08:43:58;17.40;64.60
28763;DHT22;15918;51.270;6.522;2022-09-25T08:47:01;17.40;64.50
28763;DHT22;15918;51.270;6.522;2022-09-25T08:50:04;17.40;64.30
28763;DHT22;15918;51.270;6.522;2022-09-25T08:52:30;17.40;64.60
28763;DHT22;15918;51.270;6.522;2022-09-25T08:54:57;17.50;64.60
28763;DHT22;15918;51.270;6.522;2022-09-25T08:57:36;17.50;64.50
28763;DHT22;15918;51.270;6.522;2022-09-25T09:00:17;17.50;64.20
28763;DHT22;15918;51.270;6.522;2022-09-25T09:02:50;17.50;64.10
28763;DHT22;15918;51.270;6.522;2022-09-25T09:05:29;17.50;64.10
28763;DHT22;15918;51.270;6.522;2022-09-25T09:08:03;17.50;63.90
28763;DHT22;15918;51.270;6.522;2022-09-25T09:10:58;17.50;63.80
28763;DHT22;15918;51.270;6.522;2022-09-25T09:18:38;17.60;63.60
28763;DHT22;15918;51.270;6.522;2022-09-25T09:40:39;17.70;62.70
28763;DHT22;15918;51.270;6.522;2022-09-25T09:49:00;17.80;62.20
28763;DHT22;15918;51.270;6.522;2022-09-25T09:51:40;17.80;62.20
28763;DHT22;15918;51.270;6.522;2022-09-25T09:56:41;17.80;62.20
28763;DHT22;15918;51.270;6.522;2022-09-25T09:59:21;17.80;61.90
28763;DHT22;15918;51.270;6.522;2022-09-25T10:02:03;17.80;61.60
28763;DHT22;15918;51.270;6.522;2022-09-25T10:04:36;17.80;61.60
28763;DHT22;15918;51.270;6.522;2022-09-25T10:07:08;17.80;61.60
28763;DHT22;15918;51.270;6.522;2022-09-25T10:09:36;17.80;61.60
28763;DHT22;15918;51.270;6.522;2022-09-25T10:12:14;17.80;61.40
28763;DHT22;15918;51.270;6.522;2022-09-25T10:14:46;17.90;61.30
28763;DHT22;15918;51.270;6.522;2022-09-25T10:17:13;17.90;61.20
28763;DHT22;15918;51.270;6.522;2022-09-25T10:19:46;17.80;61.00
28763;DHT22;15918;51.270;6.522;2022-09-25T10:22:18;17.90;61.00
28763;DHT22;15918;51.270;6.522;2022-09-25T10:24:52;17.90;60.80
28763;DHT22;15918;51.270;6.522;2022-09-25T10:27:29;17.90;60.80
28763;DHT22;15918;51.270;6.522;2022-09-25T10:33:01;17.90;60.00
28763;DHT22;15918;51.270;6.522;2022-09-25T10:38:03;17.90;60.40
28763;DHT22;15918;51.270;6.522;2022-09-25T10:40:34;17.90;60.60
28763;DHT22;15918;51.270;6.522;2022-09-25T10:43:21;17.90;61.20
28763;DHT22;15918;51.270;6.522;2022-09-25T10:45:49;18.00;60.30
28763;DHT22;15918;51.270;6.522;2022-09-25T10:48:38;18.00;60.30
28763;DHT22;15918;51.270;6.522;2022-09-25T10:51:22;18.00;59.30
28763;DHT22;15918;51.270;6.522;2022-09-25T10:53:50;18.10;59.10
28763;DHT22;15918;51.270;6.522;2022-09-25T10:56:22;18.10;59.10
28763;DHT22;15918;51.270;6.522;2022-09-25T10:58:55;18.10;59.00
28763;DHT22;15918;51.270;6.522;2022-09-25T11:01:37;18.10;59.10
28763;DHT22;15918;51.270;6.522;2022-09-25T11:04:14;18.10;59.20
28763;DHT22;15918;51.270;6.522;2022-09-25T11:06:47;18.20;59.30
28763;DHT22;15918;51.270;6.522;2022-09-25T11:09:18;18.20;59.20
28763;DHT22;15918;51.270;6.522;2022-09-25T11:11:45;18.20;59.10
28763;DHT22;15918;51.270;6.522;2022-09-25T11:14:20;18.20;59.00
28763;DHT22;15918;51.270;6.522;2022-09-25T11:16:53;18.30;58.80
28763;DHT22;15918;51.270;6.522;2022-09-25T11:19:24;18.30;58.80
28763;DHT22;15918;51.270;6.522;2022-09-25T11:28:03;18.30;58.90
28763;DHT22;15918;51.270;6.522;2022-09-25T11:30:22;18.40;58.60
28763;DHT22;15918;51.270;6.522;2022-09-25T11:33:05;18.40;58.70
28763;DHT22;15918;51.270;6.522;2022-09-25T11:35:52;18.40;58.40
28763;DHT22;15918;51.270;6.522;2022-09-25T11:49:30;18.50;58.50
28763;DHT22;15918;51.270;6.522;2022-09-25T12:00:20;18.50;58.20
28763;DHT22;15918;51.270;6.522;2022-09-25T12:08:35;18.60;58.20
28763;DHT22;15918;51.270;6.522;2022-09-25T12:11:31;18.60;58.50
28763;DHT22;15918;51.270;6.522;2022-09-25T12:30:17;18.70;58.10
28763;DHT22;15918;51.270;6.522;2022-09-25T12:38:02;18.80;58.00
28763;DHT22;15918;51.270;6.522;2022-09-25T12:40:52;18.80;58.30
28763;DHT22;15918;51.270;6.522;2022-09-25T12:43:49;18.70;58.10
28763;DHT22;15918;51.270;6.522;2022-09-25T12:46:26;18.70;58.00
28763;DHT22;15918;51.270;6.522;2022-09-25T12:49:00;18.80;58.10
28763;DHT22;15918;51.270;6.522;2022-09-25T12:51:39;18.80;58.20
28763;DHT22;15918;51.270;6.522;2022-09-25T12:54:26;18.80;57.80
28763;DHT22;15918;51.270;6.522;2022-09-25T12:56:55;18.80;57.80
28763;DHT22;15918;51.270;6.522;2022-09-25T12:59:35;18.80;58.10
28763;DHT22;15918;51.270;6.522;2022-09-25T13:02:39;18.80;58.00
28763;DHT22;15918;51.270;6.522;2022-09-25T13:05:11;18.80;58.50
28763;DHT22;15918;51.270;6.522;2022-09-25T13:10:40;18.90;57.60
28763;DHT22;15918;51.270;6.522;2022-09-25T13:13:14;18.90;56.50
28763;DHT22;15918;51.270;6.522;2022-09-25T13:15:49;18.90;56.10
28763;DHT22;15918;51.270;6.522;2022-09-25T13:18:21;18.90;56.30
28763;DHT22;15918;51.270;6.522;2022-09-25T13:20:57;18.90;56.40
28763;DHT22;15918;51.270;6.522;2022-09-25T13:23:36;18.90;56.30
28763;DHT22;15918;51.270;6.522;2022-09-25T13:26:11;18.90;56.50
28763;DHT22;15918;51.270;6.522;2022-09-25T13:28:58;19.00;57.40
28763;DHT22;15918;51.270;6.522;2022-09-25T13:31:29;19.00;56.80
28763;DHT22;15918;51.270;6.522;2022-09-25T13:34:17;19.00;56.90
28763;DHT22;15918;51.270;6.522;2022-09-25T13:36:55;19.00;57.00
28763;DHT22;15918;51.270;6.522;2022-09-25T13:45:29;19.00;56.60
28763;DHT22;15918;51.270;6.522;2022-09-25T13:50:29;19.00;56.80
28763;DHT22;15918;51.270;6.522;2022-09-25T13:58:21;19.10;56.80
28763;DHT22;15918;51.270;6.522;2022-09-25T14:03:47;19.00;56.90
28763;DHT22;15918;51.270;6.522;2022-09-25T14:06:25;19.10;57.00
28763;DHT22;15918;51.270;6.522;2022-09-25T14:08:54;19.10;56.90
28763;DHT22;15918;51.270;6.522;2022-09-25T14:11:28;19.00;56.90
28763;DHT22;15918;51.270;6.522;2022-09-25T14:13:57;19.10;57.00
28763;DHT22;15918;51.270;6.522;2022-09-25T14:16:55;19.10;57.50
28763;DHT22;15918;51.270;6.522;2022-09-25T14:19:31;19.10;56.80
28763;DHT22;15918;51.270;6.522;2022-09-25T14:22:01;19.10;57.00
28763;DHT22;15918;51.270;6.522;2022-09-25T14:24:29;19.10;57.00
28763;DHT22;15918;51.270;6.522;2022-09-25T14:26:57;19.10;57.00
28763;DHT22;15918;51.270;6.522;2022-09-25T14:29:30;19.10;56.90
28763;DHT22;15918;51.270;6.522;2022-09-25T14:34:57;19.10;56.70
28763;DHT22;15918;51.270;6.522;2022-09-25T14:42:59;19.10;56.70
28763;DHT22;15918;51.270;6.522;2022-09-25T14:47:59;19.10;57.10
28763;DHT22;15918;51.270;6.522;2022-09-25T14:50:37;19.10;56.40
28763;DHT22;15918;51.270;6.522;2022-09-25T14:53:06;19.10;56.50
28763;DHT22;15918;51.270;6.522;2022-09-25T14:55:40;19.10;56.40
28763;DHT22;15918;51.270;6.522;2022-09-25T14:58:08;19.10;56.50
28763;DHT22;15918;51.270;6.522;2022-09-25T15:00:43;19.10;56.50
28763;DHT22;15918;51.270;6.522;2022-09-25T15:03:12;19.10;56.30
28763;DHT22;15918;51.270;6.522;2022-09-25T15:05:38;19.10;56.40
28763;DHT22;15918;51.270;6.522;2022-09-25T15:08:22;19.10;56.50
28763;DHT22;15918;51.270;6.522;2022-09-25T15:10:59;19.10;56.50
28763;DHT22;15918;51.270;6.522;2022-09-25T15:13:24;19.10;56.60
28763;DHT22;15918;51.270;6.522;2022-09-25T15:15:56;19.00;56.60
28763;DHT22;15918;51.270;6.522;2022-09-25T15:18:42;19.10;56.50
28763;DHT22;15918;51.270;6.522;2022-09-25T15:21:29;19.10;56.50
28763;DHT22;15918;51.270;6.522;2022-09-25T15:24:02;19.10;56.20
28763;DHT22;15918;51.270;6.522;2022-09-25T15:26:29;19.10;56.40
28763;DHT22;15918;51.270;6.522;2022-09-25T15:28:56;19.10;56.40
28763;DHT22;15918;51.270;6.522;2022-09-25T15:31:22;19.00;56.30
28763;DHT22;15918;51.270;6.522;2022-09-25T15:34:11;19.00;56.20
28763;DHT22;15918;51.270;6.522;2022-09-25T15:36:37;19.10;56.10
28763;DHT22;15918;51.270;6.522;2022-09-25T15:39:15;19.00;56.30
28763;DHT22;15918;51.270;6.522;2022-09-25T15:41:42;19.00;56.40
28763;DHT22;15918;51.270;6.522;2022-09-25T15:44:16;19.00;56.50
28763;DHT22;15918;51.270;6.522;2022-09-25T15:46:51;19.00;56.60
28763;DHT22;15918;51.270;6.522;2022-09-25T15:49:23;19.00;56.60
28763;DHT22;15918;51.270;6.522;2022-09-25T15:51:54;19.00;56.70
28763;DHT22;15918;51.270;6.522;2022-09-25T15:57:00;19.00;56.90
28763;DHT22;15918;51.270;6.522;2022-09-25T15:59:45;19.00;57.10
28763;DHT22;15918;51.270;6.522;2022-09-25T16:02:37;19.00;56.90
28763;DHT22;15918;51.270;6.522;2022-09-25T16:05:29;18.90;57.00
28763;DHT22;15918;51.270;6.522;2022-09-25T16:10:42;18.90;57.00
28763;DHT22;15918;51.270;6.522;2022-09-25T16:13:23;18.90;57.10
28763;DHT22;15918;51.270;6.522;2022-09-25T16:15:53;18.90;56.60
28763;DHT22;15918;51.270;6.522;2022-09-25T16:18:25;18.90;56.50
28763;DHT22;15918;51.270;6.522;2022-09-25T16:21:19;18.90;56.60
28763;DHT22;15918;51.270;6.522;2022-09-25T16:23:43;18.90;56.50
28763;DHT22;15918;51.270;6.522;2022-09-25T16:26:17;18.90;56.70
28763;DHT22;15918;51.270;6.522;2022-09-25T16:31:43;18.90;56.80
28763;DHT22;15918;51.270;6.522;2022-09-25T16:34:36;18.90;56.90
28763;DHT22;15918;51.270;6.522;2022-09-25T16:37:03;18.90;56.80
28763;DHT22;15918;51.270;6.522;2022-09-25T16:39:36;18.90;57.00
28763;DHT22;15918;51.270;6.522;2022-09-25T16:44:47;18.90;56.70
28763;DHT22;15918;51.270;6.522;2022-09-25T16:47:15;18.90;56.90
28763;DHT22;15918;51.270;6.522;2022-09-25T16:49:43;18.90;57.00
28763;DHT22;15918;51.270;6.522;2022-09-25T16:52:22;18.90;57.00
28763;DHT22;15918;51.270;6.522;2022-09-25T16:54:51;18.90;57.00
28763;DHT22;15918;51.270;6.522;2022-09-25T16:57:19;18.90;57.10
28763;DHT22;15918;51.270;6.522;2022-09-25T16:59:47;18.90;57.20
28763;DHT22;15918;51.270;6.522;2022-09-25T17:02:28;18.90;57.20
28763;DHT22;15918;51.270;6.522;2022-09-25T17:04:59;18.80;57.20
28763;DHT22;15918;51.270;6.522;2022-09-25T17:07:25;18.80;57.20
28763;DHT22;15918;51.270;6.522;2022-09-25T17:09:50;18.80;57.30
28763;DHT22;15918;51.270;6.522;2022-09-25T17:12:21;18.80;57.40
28763;DHT22;15918;51.270;6.522;2022-09-25T17:14:48;18.80;57.40
28763;DHT22;15918;51.270;6.522;2022-09-25T17:17:17;18.80;57.50
28763;DHT22;15918;51.270;6.522;2022-09-25T17:19:43;18.80;57.60
28763;DHT22;15918;51.270;6.522;2022-09-25T17:22:09;18.80;57.70
28763;DHT22;15918;51.270;6.522;2022-09-25T17:24:35;18.80;57.70
28763;DHT22;15918;51.270;6.522;2022-09-25T17:27:00;18.80;57.70
28763;DHT22;15918;51.270;6.522;2022-09-25T17:29:26;18.80;57.70
28763;DHT22;15918;51.270;6.522;2022-09-25T17:31:53;18.70;57.70
28763;DHT22;15918;51.270;6.522;2022-09-25T17:34:22;18.70;57.70
28763;DHT22;15918;51.270;6.522;2022-09-25T17:36:53;18.70;57.70
28763;DHT22;15918;51.270;6.522;2022-09-25T17:39:19;18.80;57.80
28763;DHT22;15918;51.270;6.522;2022-09-25T17:41:45;18.70;57.80
28763;DHT22;15918;51.270;6.522;2022-09-25T17:44:16;18.70;57.80
28763;DHT22;15918;51.270;6.522;2022-09-25T17:46:42;18.70;57.70
28763;DHT22;15918;51.270;6.522;2022-09-25T17:49:08;18.60;57.60
28763;DHT22;15918;51.270;6.522;2022-09-25T17:51:34;18.70;57.70
28763;DHT22;15918;51.270;6.522;2022-09-25T17:54:01;18.70;57.60
28763;DHT22;15918;51.270;6.522;2022-09-25T17:56:27;18.70;57.60
28763;DHT22;15918;51.270;6.522;2022-09-25T17:58:54;18.70;57.60
28763;DHT22;15918;51.270;6.522;2022-09-25T18:01:25;18.60;57.50
28763;DHT22;15918;51.270;6.522;2022-09-25T18:03:53;18.60;57.50
28763;DHT22;15918;51.270;6.522;2022-09-25T18:06:20;18.60;57.50
28763;DHT22;15918;51.270;6.522;2022-09-25T18:08:47;18.60;57.50
28763;DHT22;15918;51.270;6.522;2022-09-25T18:11:14;18.60;57.50
28763;DHT22;15918;51.270;6.522;2022-09-25T18:13:41;18.50;57.50
28763;DHT22;15918;51.270;6.522;2022-09-25T18:16:20;18.50;57.60
28763;DHT22;15918;51.270;6.522;2022-09-25T18:18:47;18.60;57.60
28763;DHT22;15918;51.270;6.522;2022-09-25T18:21:31;18.50;58.20
28763;DHT22;15918;51.270;6.522;2022-09-25T18:24:16;18.50;57.70
28763;DHT22;15918;51.270;6.522;2022-09-25T18:26:42;18.50;57.70